aviador You're here:

SBGR Decoded Metar

SAO PAULO in BRAZIL
Report Time2017-10-22 05:00:00
UTC Time2017-10-22 06:33:15
Flight Rules Old
Wind240° at 04 kt
W.Decomp.*RWY 27: 3.9 kt HW 0.7 kt LCW
W.Rank240° ranks 36
Current wind is above 240° avg. (3.9)
Visibility9999 m
Phenomena:N/A
Clouds:N/A
Expected CloudBase > 2,000 ft AGL from Temp-Dew spread
CeilingNone
Temp22°C (ISA +12)
Dew Point17°C (73% RH)
QNH1016 hPa
Density Alt4,006 ft
Elevation2,461 ft
Report Wrong Elevation
Raw Report
METAR SBGR 220500Z 24004KT CAVOK 22/17 Q1016=

Extra information for SBGR:More info

Metar Taf Metar & Taf Last 4 Metars F.Rules Stats Wind Profile Meteogram Temp Stats Airport Information Weather charts Add Link Nearby VenuesMetar ALERT Operation Metar Decoded Social comments